createdAt,value
2022-08-19T00:00:51.635Z,43.04
2022-08-19T00:03:38.112Z,43.00
2022-08-19T00:06:24.345Z,42.82
2022-08-19T00:09:13.427Z,43.04
2022-08-19T00:12:00.210Z,43.82
2022-08-19T00:14:46.976Z,43.64
2022-08-19T00:17:33.287Z,44.04
2022-08-19T00:20:22.181Z,43.67
2022-08-19T00:23:08.209Z,44.20
2022-08-19T00:25:54.710Z,44.90
2022-08-19T00:28:41.135Z,45.03
2022-08-19T00:31:28.863Z,46.71
2022-08-19T00:34:15.609Z,46.11
2022-08-19T00:37:01.974Z,46.11
2022-08-19T00:39:49.204Z,46.43
2022-08-19T00:42:35.552Z,46.90
2022-08-19T00:45:25.259Z,45.52
2022-08-19T00:48:14.892Z,46.39
2022-08-19T00:51:02.202Z,47.77
2022-08-19T00:53:48.478Z,47.06
2022-08-19T00:56:34.937Z,46.05
2022-08-19T00:59:58.829Z,45.90
2022-08-19T01:02:28.627Z,45.95
2022-08-19T01:05:22.170Z,45.79
2022-08-19T01:08:08.911Z,46.69
2022-08-19T01:10:57.805Z,45.54
2022-08-19T01:13:49.690Z,47.17
2022-08-19T01:16:38.263Z,45.63
2022-08-19T01:19:43.393Z,46.11
2022-08-19T01:22:33.883Z,45.83
2022-08-19T01:25:35.377Z,45.19
2022-08-19T01:28:39.683Z,45.12
2022-08-19T01:31:32.519Z,45.81
2022-08-19T01:34:20.372Z,45.72
2022-08-19T01:37:09.061Z,44.83
2022-08-19T01:39:55.645Z,46.34
2022-08-19T01:42:42.290Z,46.92
2022-08-19T01:45:30.148Z,46.07
2022-08-19T01:48:16.312Z,46.63
2022-08-19T01:51:02.840Z,46.72
2022-08-19T01:53:50.445Z,46.40
2022-08-19T01:56:36.801Z,46.10
2022-08-19T01:59:24.148Z,45.99
2022-08-19T02:02:10.414Z,45.58
2022-08-19T02:04:56.910Z,46.38
2022-08-19T02:07:43.127Z,47.57
2022-08-19T02:10:29.363Z,47.64
2022-08-19T02:13:15.802Z,46.58
2022-08-19T02:16:08.248Z,46.01
2022-08-19T02:18:58.013Z,47.22
2022-08-19T02:21:44.632Z,45.91
2022-08-19T02:24:30.852Z,46.21
2022-08-19T02:27:17.711Z,46.92
2022-08-19T02:30:05.258Z,46.56
2022-08-19T02:32:52.698Z,47.11
2022-08-19T02:35:43.361Z,47.62
2022-08-19T02:38:29.913Z,47.11
2022-08-19T02:41:21.499Z,46.47
2022-08-19T02:44:30.312Z,48.34
2022-08-19T02:47:16.229Z,47.43
2022-08-19T02:50:03.937Z,46.56
2022-08-19T02:52:50.454Z,46.68
2022-08-19T02:55:46.132Z,46.34
2022-08-19T02:58:32.844Z,46.43
2022-08-19T03:01:31.074Z,46.26
2022-08-19T03:04:17.402Z,46.71
2022-08-19T03:07:10.931Z,47.00
2022-08-19T03:09:57.192Z,46.55
2022-08-19T03:12:43.646Z,46.84
2022-08-19T03:15:30.148Z,48.08
2022-08-19T03:18:18.020Z,47.13
2022-08-19T03:21:04.588Z,47.25
2022-08-19T03:23:54.529Z,47.13
2022-08-19T03:26:42.840Z,47.05
2022-08-19T03:29:32.621Z,47.32
2022-08-19T03:32:32.342Z,47.72
2022-08-19T03:35:21.253Z,48.29
2022-08-19T03:38:07.737Z,47.66
2022-08-19T03:40:54.002Z,48.00
2022-08-19T03:43:41.481Z,48.12
2022-08-19T03:46:30.251Z,47.65
2022-08-19T03:49:18.299Z,47.77
2022-08-19T03:52:08.292Z,48.74
2022-08-19T03:55:00.673Z,47.93
2022-08-19T03:57:49.502Z,48.79
2022-08-19T04:00:36.877Z,48.66
2022-08-19T04:03:24.559Z,47.98
2022-08-19T04:06:16.851Z,49.26
2022-08-19T04:09:05.958Z,49.36
2022-08-19T04:11:57.601Z,50.36
2022-08-19T04:14:44.277Z,49.00
2022-08-19T04:17:30.753Z,49.09
2022-08-19T04:20:16.898Z,49.11
2022-08-19T04:23:03.367Z,48.79
2022-08-19T04:25:49.990Z,48.62
2022-08-19T04:28:37.055Z,48.41
2022-08-19T04:31:27.131Z,48.79
2022-08-19T04:34:16.415Z,48.82
2022-08-19T04:37:12.688Z,49.27
2022-08-19T04:40:17.721Z,49.82
2022-08-19T04:43:04.056Z,51.21
2022-08-19T04:45:56.358Z,49.45
2022-08-19T04:48:49.272Z,50.36
2022-08-19T04:51:37.406Z,49.27
2022-08-19T04:54:38.549Z,49.68
2022-08-19T04:57:25.373Z,51.15
2022-08-19T05:00:12.473Z,51.12
2022-08-19T05:02:58.675Z,50.08
2022-08-19T05:05:50.918Z,49.55
2022-08-19T05:08:38.651Z,51.00
2022-08-19T05:11:27.559Z,49.61
2022-08-19T05:14:14.116Z,50.93
2022-08-19T05:17:24.013Z,51.32
2022-08-19T05:20:28.727Z,49.22
2022-08-19T05:23:22.139Z,49.18
2022-08-19T05:26:11.459Z,50.24
2022-08-19T05:28:57.697Z,50.42
2022-08-19T05:31:44.317Z,49.78
2022-08-19T05:34:30.899Z,50.63
2022-08-19T05:37:18.073Z,49.55
2022-08-19T05:40:05.116Z,49.21
2022-08-19T05:42:55.228Z,51.85
2022-08-19T05:45:43.039Z,49.89
2022-08-19T05:48:29.343Z,48.79
2022-08-19T05:51:17.796Z,47.17
2022-08-19T05:54:05.360Z,48.64
2022-08-19T05:56:52.820Z,48.77
2022-08-19T05:59:39.194Z,47.40
2022-08-19T06:02:31.617Z,48.04
2022-08-19T06:05:18.254Z,48.37
2022-08-19T06:08:05.563Z,47.91
2022-08-19T06:10:51.876Z,47.63
2022-08-19T06:13:38.351Z,46.91
2022-08-19T06:16:24.743Z,46.75
2022-08-19T06:19:14.555Z,47.02
2022-08-19T06:22:01.945Z,45.85
2022-08-19T06:24:48.628Z,46.05
2022-08-19T06:27:35.121Z,46.42
2022-08-19T06:30:21.602Z,46.14
2022-08-19T06:33:08.154Z,46.34
2022-08-19T06:35:54.393Z,45.24
2022-08-19T06:38:40.779Z,45.66
2022-08-19T06:41:27.979Z,45.37
2022-08-19T06:44:14.586Z,45.27
2022-08-19T06:47:14.325Z,45.19
2022-08-19T06:50:03.961Z,44.86
2022-08-19T06:52:52.478Z,44.50
2022-08-19T06:55:40.354Z,45.22
2022-08-19T06:58:27.001Z,43.32
2022-08-19T07:01:18.164Z,43.27
2022-08-19T07:04:06.202Z,42.95
2022-08-19T07:06:59.840Z,43.84
2022-08-19T07:10:07.847Z,43.15
2022-08-19T07:12:54.712Z,42.89
2022-08-19T07:15:41.042Z,43.40
2022-08-19T07:18:27.360Z,42.05
2022-08-19T07:21:20.261Z,41.93
2022-08-19T07:24:07.218Z,40.84
2022-08-19T07:26:55.821Z,41.61
2022-08-19T07:29:42.470Z,41.27
2022-08-19T07:32:28.948Z,40.13
2022-08-19T07:35:15.485Z,39.60
2022-08-19T07:38:04.123Z,39.79
2022-08-19T07:40:52.289Z,40.47
2022-08-19T07:43:39.293Z,40.19
2022-08-19T07:46:25.795Z,39.77
2022-08-19T07:49:20.345Z,40.13
2022-08-19T07:52:09.036Z,38.32
2022-08-19T07:54:55.193Z,38.09
2022-08-19T07:57:41.687Z,38.53
2022-08-19T08:00:28.046Z,36.71
2022-08-19T08:03:16.563Z,37.20
2022-08-19T08:06:21.448Z,38.49
2022-08-19T08:15:21.369Z,34.73
2022-08-19T08:18:12.744Z,35.49
2022-08-19T08:21:01.204Z,34.85
2022-08-19T08:23:47.516Z,34.35
2022-08-19T08:26:34.520Z,33.21
2022-08-19T08:29:20.857Z,33.67
2022-08-19T08:32:14.037Z,32.25
2022-08-19T08:35:01.214Z,33.74
2022-08-19T08:37:51.237Z,32.75
2022-08-19T08:40:49.696Z,31.79
2022-08-19T08:43:38.929Z,31.44
2022-08-19T08:46:35.781Z,31.16
2022-08-19T08:49:29.587Z,30.69
2022-08-19T08:52:31.852Z,30.89
2022-08-19T08:55:23.118Z,31.20
2022-08-19T08:58:22.040Z,30.27
2022-08-19T09:01:11.689Z,30.94
2022-08-19T09:04:02.817Z,30.66
2022-08-19T09:06:55.177Z,29.92
2022-08-19T09:09:44.552Z,29.15
2022-08-19T09:12:55.180Z,29.22
2022-08-19T09:15:52.447Z,29.73
2022-08-19T09:18:54.566Z,28.52
2022-08-19T09:21:40.879Z,29.27
2022-08-19T09:24:31.100Z,27.99
2022-08-19T09:27:18.517Z,28.18
2022-08-19T09:30:07.432Z,27.92
2022-08-19T09:32:54.883Z,27.13
2022-08-19T09:35:49.884Z,27.30
2022-08-19T09:38:43.641Z,26.74
2022-08-19T09:41:30.857Z,26.16
2022-08-19T09:44:17.089Z,27.08
2022-08-19T09:47:05.671Z,26.98
2022-08-19T09:49:51.758Z,26.28
2022-08-19T09:52:38.600Z,27.06
2022-08-19T09:55:31.128Z,27.02
2022-08-19T09:58:20.499Z,28.05
2022-08-19T10:01:21.141Z,27.22
2022-08-19T10:04:14.738Z,27.58
2022-08-19T10:07:06.578Z,27.87
2022-08-19T10:09:53.046Z,27.95
2022-08-19T10:12:39.538Z,26.52
2022-08-19T10:15:28.954Z,25.96
2022-08-19T10:18:19.141Z,25.42
2022-08-19T10:21:12.222Z,25.39
2022-08-19T10:24:00.615Z,25.57
2022-08-19T10:26:58.742Z,25.45
2022-08-19T10:29:46.497Z,26.24
2022-08-19T10:32:34.357Z,24.78
2022-08-19T10:35:21.954Z,24.66
2022-08-19T10:38:08.691Z,24.97
2022-08-19T10:40:56.595Z,25.23
2022-08-19T10:43:43.791Z,24.06
2022-08-19T10:46:33.725Z,23.11
2022-08-19T10:49:20.449Z,23.67
2022-08-19T10:52:32.208Z,23.42
2022-08-19T10:55:40.843Z,23.08
2022-08-19T10:58:27.303Z,22.83
2022-08-19T11:01:13.597Z,22.26
2022-08-19T11:04:01.246Z,22.07
2022-08-19T11:06:49.283Z,21.66
2022-08-19T11:09:41.885Z,21.50
2022-08-19T11:12:28.735Z,22.47
2022-08-19T11:15:15.520Z,21.31
2022-08-19T11:18:01.902Z,20.89
2022-08-19T11:20:48.070Z,20.17
2022-08-19T11:23:34.714Z,21.31
2022-08-19T11:26:22.266Z,21.19
2022-08-19T11:29:12.400Z,21.32
2022-08-19T11:31:58.702Z,20.70
2022-08-19T11:34:45.075Z,20.04
2022-08-19T11:37:31.412Z,20.93
2022-08-19T11:40:17.847Z,20.52
2022-08-19T11:43:04.495Z,20.82
2022-08-19T11:45:51.204Z,20.16
2022-08-19T11:48:37.915Z,20.59
2022-08-19T11:51:28.283Z,19.81
2022-08-19T11:54:15.641Z,19.02
2022-08-19T11:57:04.219Z,20.22
2022-08-19T11:59:53.732Z,20.66
2022-08-19T12:02:40.883Z,20.75
2022-08-19T12:05:27.331Z,21.41
2022-08-19T12:08:16.604Z,20.11
2022-08-19T12:11:03.277Z,20.71
2022-08-19T12:13:49.686Z,20.52
2022-08-19T12:16:37.791Z,21.38
2022-08-19T12:19:26.933Z,21.32
2022-08-19T12:22:13.421Z,21.65
2022-08-19T12:24:59.666Z,21.18
2022-08-19T12:27:52.844Z,20.43
2022-08-19T12:30:43.818Z,20.50
2022-08-19T12:33:30.172Z,20.54
2022-08-19T12:36:17.162Z,20.57
2022-08-19T12:39:04.460Z,21.78
2022-08-19T12:41:54.361Z,21.72
2022-08-19T12:44:42.589Z,20.64
2022-08-19T12:47:28.989Z,19.70
2022-08-19T12:50:15.500Z,21.38
2022-08-19T12:53:01.761Z,20.71
2022-08-19T12:55:47.850Z,19.48
2022-08-19T12:58:35.525Z,19.38
2022-08-19T13:01:23.124Z,19.30
2022-08-19T13:04:09.558Z,18.52
2022-08-19T13:06:56.041Z,19.32
2022-08-19T13:09:43.593Z,19.45
2022-08-19T13:12:29.892Z,19.35
2022-08-19T13:15:23.775Z,19.90
2022-08-19T13:18:11.693Z,20.11
2022-08-19T13:20:57.833Z,20.69
2022-08-19T13:23:44.317Z,21.18
2022-08-19T13:26:30.776Z,20.31
2022-08-19T13:29:35.865Z,20.59
2022-08-19T13:32:41.043Z,21.56
2022-08-19T13:35:28.801Z,22.52
2022-08-19T13:38:17.541Z,24.30
2022-08-19T13:41:11.020Z,25.80
2022-08-19T13:43:58.525Z,27.82
2022-08-19T13:46:46.061Z,31.01
2022-08-19T13:49:32.399Z,33.30
2022-08-19T13:52:18.617Z,34.35
2022-08-19T13:55:05.656Z,34.51
2022-08-19T13:57:54.031Z,35.04
2022-08-19T14:00:43.541Z,35.71
2022-08-19T14:03:29.761Z,36.21
2022-08-19T14:06:15.882Z,36.35
2022-08-19T14:09:03.175Z,35.50
2022-08-19T14:11:51.215Z,35.13
2022-08-19T14:14:39.121Z,34.88
2022-08-19T14:17:26.012Z,33.95
2022-08-19T14:20:17.851Z,34.84
2022-08-19T14:23:06.614Z,34.42
2022-08-19T14:25:52.918Z,34.39
2022-08-19T14:28:41.858Z,33.23
2022-08-19T14:31:30.831Z,31.17
2022-08-19T14:34:17.149Z,30.25
2022-08-19T14:37:03.588Z,29.57
2022-08-19T14:39:50.611Z,29.51
2022-08-19T14:42:36.910Z,29.42
2022-08-19T14:45:23.571Z,30.34
2022-08-19T14:48:12.505Z,30.45
2022-08-19T14:51:07.110Z,30.81
2022-08-19T14:53:53.909Z,30.27
2022-08-19T14:56:41.180Z,30.52
2022-08-19T14:59:27.969Z,30.03
2022-08-19T15:02:34.278Z,30.76
2022-08-19T15:05:21.779Z,30.58
2022-08-19T15:08:07.755Z,30.41
2022-08-19T15:10:54.567Z,30.45
2022-08-19T15:13:40.765Z,30.48
2022-08-19T15:16:28.750Z,30.31
2022-08-19T15:19:14.730Z,30.30
2022-08-19T15:22:01.189Z,30.39
2022-08-19T15:24:47.984Z,30.29
2022-08-19T15:27:35.650Z,29.95
2022-08-19T15:30:25.334Z,30.10
2022-08-19T15:33:15.199Z,30.59
2022-08-19T15:36:01.288Z,30.86
2022-08-19T15:38:47.617Z,30.62
2022-08-19T15:41:34.785Z,30.88
2022-08-19T15:44:23.689Z,31.16
2022-08-19T15:47:10.026Z,31.49
2022-08-19T15:50:00.559Z,31.84
2022-08-19T15:52:49.811Z,31.60
2022-08-19T15:55:42.941Z,31.35
2022-08-19T15:58:47.629Z,31.72
2022-08-19T16:01:52.499Z,32.44
2022-08-19T16:04:57.528Z,33.53
2022-08-19T16:07:43.589Z,33.02
2022-08-19T16:10:30.712Z,33.45
2022-08-19T16:13:16.992Z,33.26
2022-08-19T16:16:03.407Z,33.54
2022-08-19T16:18:53.539Z,33.12
2022-08-19T16:21:41.813Z,33.65
2022-08-19T16:24:28.841Z,34.12
2022-08-19T16:27:16.532Z,34.07
2022-08-19T16:30:03.425Z,34.53
2022-08-19T16:32:49.900Z,34.91
2022-08-19T16:35:36.705Z,35.80
2022-08-19T16:38:23.858Z,36.44
2022-08-19T16:41:09.927Z,36.37
2022-08-19T16:43:56.383Z,36.99
2022-08-19T16:46:42.742Z,37.69
2022-08-19T16:49:54.165Z,37.44
2022-08-19T16:52:37.419Z,36.44
2022-08-19T16:55:23.788Z,37.45
2022-08-19T16:58:10.166Z,38.20
2022-08-19T17:01:00.769Z,37.79
2022-08-19T17:03:50.571Z,39.27
2022-08-19T17:06:38.202Z,39.26
2022-08-19T17:09:25.971Z,37.69
2022-08-19T17:12:13.098Z,37.68
2022-08-19T17:15:03.000Z,39.30
2022-08-19T17:17:49.426Z,40.09
2022-08-19T17:20:36.009Z,41.19
2022-08-19T17:23:23.447Z,49.00
2022-08-19T17:26:30.529Z,52.35
2022-08-19T17:29:16.834Z,51.19
2022-08-19T17:32:03.590Z,49.21
2022-08-19T17:34:50.186Z,49.60
2022-08-19T17:37:37.280Z,49.33
2022-08-19T17:40:25.030Z,46.81
2022-08-19T17:43:16.733Z,45.58
2022-08-19T17:46:19.619Z,44.15
2022-08-19T17:49:06.661Z,42.12
2022-08-19T17:51:53.500Z,40.96
2022-08-19T17:54:39.386Z,41.41
2022-08-19T17:57:25.651Z,40.00
2022-08-19T18:00:15.476Z,40.44
2022-08-19T18:03:05.256Z,38.18
2022-08-19T18:05:53.505Z,42.34
2022-08-19T18:08:39.924Z,47.85
2022-08-19T18:11:26.049Z,50.91
2022-08-19T18:14:13.313Z,53.87
2022-08-19T18:17:00.468Z,56.58
2022-08-19T18:19:47.877Z,54.61
2022-08-19T18:22:37.051Z,51.90
2022-08-19T18:25:26.099Z,54.57
2022-08-19T18:28:12.671Z,55.51
2022-08-19T18:30:59.317Z,54.55
2022-08-19T18:33:46.628Z,57.92
2022-08-19T18:36:53.056Z,64.79
2022-08-19T18:39:59.079Z,73.72
2022-08-19T18:43:04.989Z,73.57
2022-08-19T18:46:10.481Z,79.79
2022-08-19T18:49:05.879Z,76.30
2022-08-19T18:51:52.261Z,80.97
2022-08-19T18:54:40.268Z,84.77
2022-08-19T18:57:26.304Z,95.86
2022-08-19T19:00:13.211Z,92.36
2022-08-19T19:02:59.644Z,100.00
2022-08-19T19:05:45.994Z,100.00
2022-08-19T19:08:32.301Z,97.05
2022-08-19T19:11:23.984Z,97.25
2022-08-19T19:14:19.251Z,93.83
2022-08-19T19:17:18.247Z,93.91
2022-08-19T19:20:05.409Z,92.86
2022-08-19T19:22:52.165Z,93.16
2022-08-19T19:25:49.760Z,100.00
2022-08-19T19:28:39.507Z,100.00
2022-08-19T19:31:26.780Z,100.00
2022-08-19T19:34:28.867Z,97.19
2022-08-19T19:37:16.970Z,100.00
2022-08-19T19:40:04.348Z,100.00
2022-08-19T19:42:51.911Z,100.00
2022-08-19T19:45:38.661Z,100.00
2022-08-19T19:48:28.332Z,100.00
2022-08-19T19:51:14.812Z,100.00
2022-08-19T19:54:01.885Z,100.00
2022-08-19T19:56:50.387Z,100.00
2022-08-19T19:59:36.596Z,100.00
2022-08-19T20:02:25.230Z,100.00
2022-08-19T20:05:12.682Z,100.00
2022-08-19T20:08:18.996Z,100.00
2022-08-19T20:11:07.273Z,100.00
2022-08-19T20:13:53.269Z,100.00
2022-08-19T20:16:44.117Z,100.00
2022-08-19T20:19:37.060Z,100.00
2022-08-19T20:22:25.605Z,100.00
2022-08-19T20:25:16.375Z,100.00
2022-08-19T20:28:05.757Z,100.00
2022-08-19T20:30:52.510Z,100.00
2022-08-19T20:33:38.833Z,100.00
2022-08-19T20:36:25.289Z,100.00
2022-08-19T20:39:12.325Z,100.00
2022-08-19T20:42:00.788Z,100.00
2022-08-19T20:44:47.175Z,100.00
2022-08-19T20:47:33.269Z,100.00
2022-08-19T20:50:19.873Z,100.00
2022-08-19T20:53:14.529Z,100.00
2022-08-19T20:56:01.048Z,100.00
2022-08-19T20:58:53.492Z,100.00
2022-08-19T21:01:40.934Z,100.00
2022-08-19T21:04:27.405Z,100.00
2022-08-19T21:07:14.300Z,100.00
2022-08-19T21:10:00.700Z,100.00
2022-08-19T21:12:47.116Z,100.00
2022-08-19T21:15:34.210Z,100.00
2022-08-19T21:18:22.553Z,100.00
2022-08-19T21:21:08.846Z,100.00
2022-08-19T21:23:55.057Z,100.00
2022-08-19T21:26:41.470Z,100.00
2022-08-19T21:29:27.946Z,100.00
2022-08-19T21:32:14.671Z,100.00
2022-08-19T21:35:02.257Z,100.00
2022-08-19T21:37:48.735Z,100.00
2022-08-19T21:40:35.162Z,100.00
2022-08-19T21:43:21.878Z,100.00
2022-08-19T21:46:09.102Z,100.00
2022-08-19T21:48:55.355Z,100.00
2022-08-19T21:51:41.541Z,100.00
2022-08-19T21:54:27.587Z,100.00
2022-08-19T21:57:25.282Z,100.00
2022-08-19T22:00:18.573Z,100.00
2022-08-19T22:03:05.635Z,100.00
2022-08-19T22:05:51.520Z,100.00
2022-08-19T22:08:37.874Z,100.00
2022-08-19T22:11:25.267Z,100.00
2022-08-19T22:14:11.652Z,100.00
2022-08-19T22:16:58.671Z,100.00
2022-08-19T22:19:45.082Z,100.00
2022-08-19T22:22:33.209Z,100.00
2022-08-19T22:25:29.061Z,100.00
2022-08-19T22:28:19.154Z,100.00
2022-08-19T22:31:14.610Z,100.00
2022-08-19T22:34:01.879Z,100.00
2022-08-19T22:36:48.034Z,100.00
2022-08-19T22:39:34.966Z,100.00
2022-08-19T22:42:22.058Z,100.00
2022-08-19T22:45:10.141Z,100.00
2022-08-19T22:47:57.241Z,100.00
2022-08-19T22:51:04.927Z,100.00
2022-08-19T22:53:51.401Z,100.00
2022-08-19T22:56:37.197Z,100.00
2022-08-19T22:59:23.631Z,100.00
2022-08-19T23:02:10.153Z,100.00
2022-08-19T23:04:56.452Z,100.00
2022-08-19T23:07:42.706Z,100.00
2022-08-19T23:10:38.135Z,100.00
2022-08-19T23:13:24.776Z,100.00
2022-08-19T23:16:11.465Z,100.00
2022-08-19T23:18:58.524Z,100.00
2022-08-19T23:21:45.196Z,100.00
2022-08-19T23:24:31.551Z,100.00
2022-08-19T23:27:36.712Z,100.00
2022-08-19T23:30:25.925Z,100.00
2022-08-19T23:33:16.156Z,100.00
2022-08-19T23:36:16.964Z,100.00
2022-08-19T23:39:03.586Z,100.00
2022-08-19T23:41:49.613Z,100.00
2022-08-19T23:44:35.995Z,100.00
2022-08-19T23:47:37.840Z,100.00
2022-08-19T23:50:27.733Z,100.00
2022-08-19T23:53:14.736Z,100.00
2022-08-19T23:56:01.313Z,100.00
2022-08-19T23:58:49.066Z,100.00
